Austin, TX (78772)

1:03 AM CST on December 19, 2014 (GMT -0600)
Travis Heights - Chateaux Sexton | Change Station
CLOSE
Current Station
Personal Weather Station
Location: Austin, TX
Elevation: 568 ft
Nearby Weather Stations
Active Advisory: Special Statement

Elev 568 ft 30.24 °N, 97.75 °W | Updated 21 seconds ago

Thunderstorm
Thunderstorm
50.3 °F
Feels Like 50.3 °F
N
3.0
Wind Variable Wind from SW
Gusts 11.0 mph

Today
High -- | Low -- °F
--% Chance of Precip.
Yesterday
High -- | Low -- °F
Precip. -- in
7:22 AM 5:34 PM
Waning Crescent, 9% visible
Pressure 30.09 in
Visibility 3.0 miles
Clouds Mostly Cloudy 700 ft
Overcast 1300 ft
Dew Point 49 °F
Humidity 96%
Rainfall 0.09 in
Snow Depth Not available.
UV 0 out of 12
Pollen 8.10 out of 12
Air Quality Not available.
Flu Activity Not available.
METAR KAUS 190653Z 36014KT 3SM -TSRA BR BKN007CB OVC013 10/09 A3008 RMK AO2 TSB24 SLP187 FRQ LTGICCC NE TS NE MOV NE P0016 T01000094

More Conditions Fewer Conditions

Pressure 30.09 in
Visibility 3.0 miles
Clouds Mostly Cloudy 700 ft
Overcast 1300 ft
Dew Point 49 °F
Humidity 96%
Rainfall 0.09 in
Snow Depth Not available.
UV 0 out of 12
Pollen 8.10 out of 12
Air Quality Not available.
Flu Activity Not available.
METAR KAUS 190653Z 36014KT 3SM -TSRA BR BKN007CB OVC013 10/09 A3008 RMK AO2 TSB24 SLP187 FRQ LTGICCC NE TS NE MOV NE P0016 T01000094

More Conditions Fewer Conditions

Nowcast | as of 11:46 PM CST on December 18, 2014

Through 2 am...areas of light rain...rain showers and isolated thunderstorms will continue to develop and move north across south central Texas. Rainfall amounts will range from one tenth to three quarters of an inch. Locally heavier amounts to near one inch are possible in thunderstorms...along and to the east of Interstate 35. Rainfall coverage will become more widespread overnight.

×

10-Day Weather Forecast

Almanac

Astronomy

Dec. 19, 2014 Rise Set
Actual Time
Civil Twilight
Nautical Twilight
Astronomical Twilight
Moon
Length of Visible Light
Length of Day
Tomorrow will be .
, % of the Moon is Illuminated

Today's Extremes

State Highs State Lows

Community

WunderPhotos

Upload Photos

1,778,952 photos uploaded!

WunderBlogs® & News

Nearby

Air Quality

  Air Quality AQ Index Pollutant
Not available.

Snow Depth

Station Depth Elevation

Earthquake Activity

City Distance Mag. Time & Date
Minimum magnitude displayed is 2.5.

Coastal Water Temperatures

Place Temperature

Nearby Weather Stations